Time;durP1;ratioP1;P1;durP2;ratioP2;P2;SDS_P1;SDS_P2;PMS_P1;PMS_P2;Temp;Humidity;BMP_temperature;BMP_pressure;BME280_temperature;BME280_humidity;BME280_pressure;Samples;Min_cycle;Max_cycle;Signal;HPM_P1;HPM_P2
2023/08/29 00:01:30;;;;;;;5.90;3.92;;;;;;;;;;6216742;23;20048;-86
2023/08/29 00:03:58;;;;;;;7.80;3.97;;;;;;;;;;6215862;23;20079;-86
2023/08/29 00:06:24;;;;;;;5.82;3.63;;;;;;;;;;6215375;23;20017;-87
2023/08/29 00:08:50;;;;;;;6.13;3.20;;;;;;;;;;6215610;23;20024;-87
2023/08/29 00:11:19;;;;;;;6.07;3.90;;;;;;;;;;6217185;23;20017;-87
2023/08/29 00:13:45;;;;;;;5.55;4.22;;;;;;;;;;6214999;23;20050;-87
2023/08/29 00:16:16;;;;;;;5.35;3.60;;;;;;;;;;6190767;23;20012;-87
2023/08/29 00:18:42;;;;;;;4.47;3.53;;;;;;;;;;6191029;23;20075;-87
2023/08/29 00:21:08;;;;;;;6.72;3.60;;;;;;;;;;6225131;23;20027;-86
2023/08/29 00:23:34;;;;;;;4.55;3.65;;;;;;;;;;6222379;23;20480;-86
2023/08/29 00:26:00;;;;;;;5.75;3.67;;;;;;;;;;6217686;23;20020;-86
2023/08/29 00:28:26;;;;;;;5.53;3.65;;;;;;;;;;6190896;23;20020;-87
2023/08/29 00:30:54;;;;;;;5.43;3.33;;;;;;;;;;6217815;23;20026;-87
2023/08/29 00:33:20;;;;;;;4.45;3.55;;;;;;;;;;6217894;23;20016;-86
2023/08/29 00:35:47;;;;;;;3.80;3.28;;;;;;;;;;6190279;23;20352;-86
2023/08/29 00:38:14;;;;;;;4.75;3.35;;;;;;;;;;6216774;23;20024;-87
2023/08/29 00:40:40;;;;;;;5.00;3.30;;;;;;;;;;6214744;23;20036;-86
2023/08/29 00:43:06;;;;;;;5.53;3.63;;;;;;;;;;6214685;23;20067;-86
2023/08/29 00:45:33;;;;;;;5.20;3.20;;;;;;;;;;6214644;23;20066;-87
2023/08/29 00:48:01;;;;;;;6.10;3.30;;;;;;;;;;6189048;23;20017;-86
2023/08/29 00:50:27;;;;;;;4.55;3.40;;;;;;;;;;6215888;23;20019;-86
2023/08/29 00:52:57;;;;;;;4.15;3.35;;;;;;;;;;6214643;23;20094;-86
2023/08/29 00:55:23;;;;;;;5.07;3.35;;;;;;;;;;6216446;23;20436;-86
2023/08/29 00:57:55;;;;;;;6.05;3.20;;;;;;;;;;6189398;23;20095;-86
2023/08/29 01:00:23;;;;;;;6.25;3.22;;;;;;;;;;6189887;23;20091;-86
2023/08/29 01:02:49;;;;;;;3.67;3.20;;;;;;;;;;6215827;23;20012;-87
2023/08/29 01:05:15;;;;;;;4.32;3.28;;;;;;;;;;6189318;23;20099;-87
2023/08/29 01:07:41;;;;;;;4.28;2.88;;;;;;;;;;6189127;23;20024;-86
2023/08/29 01:10:08;;;;;;;4.25;3.50;;;;;;;;;;6189074;23;20028;-87
2023/08/29 01:12:56;;;;;;;4.82;3.03;;;;;;;;;;6215567;23;20016;-87
2023/08/29 01:15:24;;;;;;;5.22;3.65;;;;;;;;;;6189433;23;20491;-86
2023/08/29 01:17:53;;;;;;;4.38;3.45;;;;;;;;;;6214210;23;20013;-86
2023/08/29 01:20:19;;;;;;;4.22;3.05;;;;;;;;;;6215717;23;20055;-86
2023/08/29 01:23:04;;;;;;;3.80;3.10;;;;;;;;;;6189248;23;20017;-86
2023/08/29 01:25:51;;;;;;;4.32;3.20;;;;;;;;;;6216060;23;20016;-86
2023/08/29 01:28:19;;;;;;;4.88;3.30;;;;;;;;;;6215680;23;20024;-86
2023/08/29 01:30:45;;;;;;;4.78;3.30;;;;;;;;;;6213494;23;20021;-86
2023/08/29 01:33:12;;;;;;;4.20;3.17;;;;;;;;;;6214269;23;20017;-86
2023/08/29 01:35:47;;;;;;;5.00;3.17;;;;;;;;;;6189179;23;20079;-86
2023/08/29 01:38:17;;;;;;;5.72;3.25;;;;;;;;;;6215899;23;20028;-86
2023/08/29 01:40:43;;;;;;;5.22;3.55;;;;;;;;;;6214340;23;20040;-86
2023/08/29 01:43:09;;;;;;;4.45;3.10;;;;;;;;;;6215501;23;20507;-86
2023/08/29 01:45:36;;;;;;;5.00;3.60;;;;;;;;;;6214314;23;20384;-86
2023/08/29 01:48:02;;;;;;;4.80;3.47;;;;;;;;;;6213544;23;20448;-86
2023/08/29 01:50:30;;;;;;;3.92;3.30;;;;;;;;;;6214132;23;20023;-86
2023/08/29 01:52:56;;;;;;;4.25;3.35;;;;;;;;;;6188168;23;20020;-86
2023/08/29 01:55:23;;;;;;;4.68;3.42;;;;;;;;;;6188725;23;20440;-86
2023/08/29 01:57:51;;;;;;;3.70;3.10;;;;;;;;;;6215755;23;20016;-87
2023/08/29 02:00:18;;;;;;;3.83;3.30;;;;;;;;;;6215599;23;20474;-87
2023/08/29 02:02:46;;;;;;;5.22;3.67;;;;;;;;;;6215645;23;20016;-87
2023/08/29 02:05:12;;;;;;;4.55;3.40;;;;;;;;;;6217520;23;20036;-86
2023/08/29 02:07:38;;;;;;;4.55;3.20;;;;;;;;;;6215882;23;20099;-87
2023/08/29 02:10:05;;;;;;;3.75;3.20;;;;;;;;;;6216544;23;20016;-87
2023/08/29 02:12:31;;;;;;;4.63;3.33;;;;;;;;;;6218402;23;20017;-86
2023/08/29 02:14:57;;;;;;;4.95;3.60;;;;;;;;;;6190990;23;20376;-86
2023/08/29 02:17:23;;;;;;;4.65;3.13;;;;;;;;;;6215787;23;20070;-87
2023/08/29 02:19:49;;;;;;;5.15;3.20;;;;;;;;;;6216672;23;20028;-87
2023/08/29 02:22:16;;;;;;;3.83;3.38;;;;;;;;;;6190762;23;20031;-87
2023/08/29 02:24:42;;;;;;;4.32;3.50;;;;;;;;;;6222115;23;20016;-87
2023/08/29 02:27:08;;;;;;;6.05;3.80;;;;;;;;;;6222487;23;20074;-87
2023/08/29 02:29:37;;;;;;;5.50;4.25;;;;;;;;;;6192126;23;20024;-87
2023/08/29 02:32:04;;;;;;;5.63;3.78;;;;;;;;;;6215337;23;20024;-86
2023/08/29 02:34:30;;;;;;;5.05;3.58;;;;;;;;;;6215532;23;20079;-86
2023/08/29 02:36:56;;;;;;;3.80;3.40;;;;;;;;;;6189596;23;20020;-86
2023/08/29 02:39:23;;;;;;;4.20;3.25;;;;;;;;;;6216140;23;20021;-86
2023/08/29 02:41:49;;;;;;;5.00;3.50;;;;;;;;;;6215056;23;20380;-86
2023/08/29 02:44:15;;;;;;;4.47;3.40;;;;;;;;;;6215464;23;20051;-86
2023/08/29 02:46:41;;;;;;;4.50;3.75;;;;;;;;;;6189946;23;20100;-86
2023/08/29 02:49:07;;;;;;;4.63;3.35;;;;;;;;;;6216954;23;20089;-86
2023/08/29 02:51:33;;;;;;;5.22;3.50;;;;;;;;;;6190263;23;20028;-86
2023/08/29 02:53:59;;;;;;;4.25;3.40;;;;;;;;;;6215654;23;20063;-86
2023/08/29 02:56:25;;;;;;;4.10;3.30;;;;;;;;;;6217274;23;20048;-86
2023/08/29 02:58:52;;;;;;;4.25;3.42;;;;;;;;;;6217671;23;20052;-87
2023/08/29 03:01:19;;;;;;;6.22;3.85;;;;;;;;;;6216741;23;20086;-87
2023/08/29 03:03:45;;;;;;;4.80;4.00;;;;;;;;;;6215527;23;20025;-87
2023/08/29 03:06:11;;;;;;;4.93;3.63;;;;;;;;;;6214885;23;20013;-87
2023/08/29 03:08:37;;;;;;;5.32;3.83;;;;;;;;;;6215338;23;20012;-87
2023/08/29 03:11:04;;;;;;;5.40;4.30;;;;;;;;;;6189018;23;20017;-87
2023/08/29 03:13:30;;;;;;;5.03;3.70;;;;;;;;;;6190206;23;20019;-87
2023/08/29 03:15:59;;;;;;;4.57;3.92;;;;;;;;;;6216216;23;20383;-87
2023/08/29 03:18:25;;;;;;;5.35;3.83;;;;;;;;;;6214802;23;20025;-86
2023/08/29 03:20:52;;;;;;;8.25;4.40;;;;;;;;;;6215056;23;20024;-86
2023/08/29 03:23:18;;;;;;;5.22;3.90;;;;;;;;;;6190040;23;20444;-87
2023/08/29 03:25:44;;;;;;;4.22;3.63;;;;;;;;;;6190664;23;20021;-87
2023/08/29 03:28:10;;;;;;;5.13;3.72;;;;;;;;;;6215293;23;20083;-87
2023/08/29 03:30:36;;;;;;;4.38;3.75;;;;;;;;;;6214785;23;20460;-86
2023/08/29 03:33:03;;;;;;;4.93;3.85;;;;;;;;;;6215254;23;20027;-87
2023/08/29 03:35:29;;;;;;;4.15;3.67;;;;;;;;;;6216721;23;20016;-87
2023/08/29 03:37:55;;;;;;;4.57;3.65;;;;;;;;;;6214446;23;20502;-86
2023/08/29 03:40:21;;;;;;;4.47;3.63;;;;;;;;;;6190756;23;20032;-87
2023/08/29 03:42:47;;;;;;;5.32;3.50;;;;;;;;;;6215034;23;20013;-87
2023/08/29 03:45:15;;;;;;;4.93;3.58;;;;;;;;;;6216651;23;20044;-86
2023/08/29 03:47:41;;;;;;;5.88;4.40;;;;;;;;;;6190434;23;20016;-86
2023/08/29 03:50:07;;;;;;;5.00;3.97;;;;;;;;;;6216601;23;20021;-87
2023/08/29 03:52:33;;;;;;;5.40;4.00;;;;;;;;;;6216489;23;20016;-87
2023/08/29 03:54:59;;;;;;;5.13;3.45;;;;;;;;;;6214999;23;20063;-87
2023/08/29 03:57:26;;;;;;;4.85;3.88;;;;;;;;;;6190087;23;20497;-87
2023/08/29 03:59:52;;;;;;;5.20;3.80;;;;;;;;;;6216419;23;20016;-88
2023/08/29 04:02:19;;;;;;;4.72;3.70;;;;;;;;;;6189401;23;20020;-88
2023/08/29 04:04:46;;;;;;;4.85;3.80;;;;;;;;;;6214226;23;20471;-88
2023/08/29 04:07:12;;;;;;;4.55;3.55;;;;;;;;;;6215993;23;20063;-88
2023/08/29 04:09:38;;;;;;;5.45;3.80;;;;;;;;;;6214348;23;20028;-87
2023/08/29 04:12:07;;;;;;;5.32;4.15;;;;;;;;;;6216203;23;20099;-87
2023/08/29 04:14:34;;;;;;;6.80;3.72;;;;;;;;;;6189396;23;20016;-88
2023/08/29 04:17:00;;;;;;;5.55;4.00;;;;;;;;;;6214123;23;20079;-87
2023/08/29 04:19:26;;;;;;;6.78;4.82;;;;;;;;;;6214299;23;20024;-87
2023/08/29 04:21:52;;;;;;;5.65;4.13;;;;;;;;;;6214215;23;20023;-87
2023/08/29 04:24:18;;;;;;;4.07;3.35;;;;;;;;;;6214162;23;20091;-87
2023/08/29 04:26:44;;;;;;;4.22;3.28;;;;;;;;;;6217661;23;20032;-87
2023/08/29 04:29:10;;;;;;;4.82;3.75;;;;;;;;;;6224029;23;20044;-87
2023/08/29 04:31:36;;;;;;;5.38;3.53;;;;;;;;;;6192881;23;20091;-87
2023/08/29 04:34:03;;;;;;;4.85;3.40;;;;;;;;;;6215431;23;20021;-87
2023/08/29 04:36:29;;;;;;;5.03;3.70;;;;;;;;;;6189281;23;20404;-87
2023/08/29 04:38:55;;;;;;;4.53;3.30;;;;;;;;;;6214199;23;20316;-87
2023/08/29 04:41:21;;;;;;;3.95;3.28;;;;;;;;;;6214510;23;20020;-87
2023/08/29 04:43:47;;;;;;;5.35;3.60;;;;;;;;;;6215853;23;20048;-87
2023/08/29 04:46:13;;;;;;;5.05;3.53;;;;;;;;;;6188682;23;20016;-87
2023/08/29 04:48:39;;;;;;;5.32;3.60;;;;;;;;;;6214667;23;20104;-87
2023/08/29 04:51:05;;;;;;;4.57;3.47;;;;;;;;;;6215810;23;20047;-87
2023/08/29 04:53:32;;;;;;;5.80;4.13;;;;;;;;;;6214810;23;20020;-87
2023/08/29 04:55:59;;;;;;;13.02;3.65;;;;;;;;;;6214831;23;20059;-87
2023/08/29 04:58:25;;;;;;;6.13;4.20;;;;;;;;;;6188946;23;20043;-87
2023/08/29 05:00:51;;;;;;;5.78;4.00;;;;;;;;;;6214582;23;20012;-87
2023/08/29 05:03:18;;;;;;;5.53;3.90;;;;;;;;;;6214623;23;20021;-87
2023/08/29 05:05:47;;;;;;;6.28;3.65;;;;;;;;;;6214481;23;20020;-87
2023/08/29 05:08:13;;;;;;;5.03;3.55;;;;;;;;;;6216655;23;20024;-87
2023/08/29 05:10:40;;;;;;;4.82;3.58;;;;;;;;;;6215164;23;20009;-87
2023/08/29 05:13:07;;;;;;;6.28;3.65;;;;;;;;;;6215731;23;20336;-87
2023/08/29 05:15:33;;;;;;;4.32;3.60;;;;;;;;;;6213546;23;20016;-87
2023/08/29 05:17:59;;;;;;;5.78;3.80;;;;;;;;;;6189271;23;20522;-87
2023/08/29 05:20:25;;;;;;;4.00;3.40;;;;;;;;;;6216085;23;20023;-87
2023/08/29 05:22:51;;;;;;;5.43;3.60;;;;;;;;;;6214315;23;20452;-87
2023/08/29 05:25:17;;;;;;;4.50;3.50;;;;;;;;;;6214925;23;20021;-87
2023/08/29 05:27:44;;;;;;;3.97;3.40;;;;;;;;;;6215280;23;20384;-87
2023/08/29 05:30:10;;;;;;;5.25;3.58;;;;;;;;;;6215627;23;20408;-87
2023/08/29 05:32:39;;;;;;;5.32;3.53;;;;;;;;;;6215336;23;20012;-87
2023/08/29 05:35:07;;;;;;;4.85;3.88;;;;;;;;;;6216081;23;20012;-87
2023/08/29 05:37:33;;;;;;;6.75;3.95;;;;;;;;;;6215776;23;20031;-87
2023/08/29 05:39:59;;;;;;;4.88;3.60;;;;;;;;;;6190801;23;20016;-87
2023/08/29 05:42:25;;;;;;;6.70;4.38;;;;;;;;;;6190769;23;20016;-87
2023/08/29 05:44:51;;;;;;;4.82;3.55;;;;;;;;;;6190849;23;20087;-87
2023/08/29 05:47:17;;;;;;;5.10;3.50;;;;;;;;;;6190976;23;20016;-87
2023/08/29 05:49:47;;;;;;;4.78;3.60;;;;;;;;;;6215946;23;20020;-87
2023/08/29 05:52:13;;;;;;;5.18;3.15;;;;;;;;;;6190911;23;20413;-87
2023/08/29 05:54:39;;;;;;;12.18;4.22;;;;;;;;;;6215534;23;20020;-87
2023/08/29 05:57:05;;;;;;;4.47;3.45;;;;;;;;;;6191099;23;20013;-89
2023/08/29 05:59:31;;;;;;;4.60;3.50;;;;;;;;;;6191740;23;20071;-88
2023/08/29 06:01:57;;;;;;;5.68;4.22;;;;;;;;;;6191952;23;20008;-86
2023/08/29 06:04:24;;;;;;;5.90;4.03;;;;;;;;;;6216241;23;20102;-87
2023/08/29 06:06:50;;;;;;;4.40;3.92;;;;;;;;;;6217207;23;20383;-86
2023/08/29 06:09:17;;;;;;;4.97;4.00;;;;;;;;;;6215554;23;20016;-86
2023/08/29 06:11:44;;;;;;;5.55;4.15;;;;;;;;;;6190416;23;20023;-86
2023/08/29 06:14:10;;;;;;;5.78;4.15;;;;;;;;;;6190199;23;20042;-86
2023/08/29 06:16:36;;;;;;;4.47;3.67;;;;;;;;;;6190350;23;20435;-85
2023/08/29 06:19:02;;;;;;;4.85;3.75;;;;;;;;;;6215279;23;20012;-84
2023/08/29 06:21:28;;;;;;;4.78;3.92;;;;;;;;;;6190109;23;20139;-84
2023/08/29 06:23:54;;;;;;;6.60;4.00;;;;;;;;;;6215518;23;20391;-84
2023/08/29 06:26:20;;;;;;;5.75;4.05;;;;;;;;;;6216852;23;20035;-84
2023/08/29 06:28:47;;;;;;;6.22;4.18;;;;;;;;;;6214645;23;20024;-84
2023/08/29 06:31:13;;;;;;;5.20;3.72;;;;;;;;;;6225856;23;20013;-84
2023/08/29 06:33:39;;;;;;;5.03;4.00;;;;;;;;;;6196794;23;20016;-84
2023/08/29 06:36:06;;;;;;;6.93;3.95;;;;;;;;;;6196560;23;20416;-85
2023/08/29 06:38:32;;;;;;;4.47;4.05;;;;;;;;;;6190635;23;20016;-85
2023/08/29 06:40:59;;;;;;;5.20;3.78;;;;;;;;;;6190589;23;20031;-85
2023/08/29 06:43:25;;;;;;;5.07;3.83;;;;;;;;;;6190194;23;20098;-86
2023/08/29 06:45:52;;;;;;;4.97;4.30;;;;;;;;;;6216017;23;20025;-85
2023/08/29 06:48:18;;;;;;;6.45;4.05;;;;;;;;;;6219515;23;20112;-86
2023/08/29 06:50:45;;;;;;;12.93;4.85;;;;;;;;;;6219374;23;20226;-85
2023/08/29 06:53:11;;;;;;;12.52;4.28;;;;;;;;;;6219710;23;20012;-86
2023/08/29 06:55:37;;;;;;;4.82;3.67;;;;;;;;;;6219982;23;20013;-87
2023/08/29 06:58:04;;;;;;;6.43;4.15;;;;;;;;;;6192596;23;20020;-85
2023/08/29 07:00:31;;;;;;;7.53;3.90;;;;;;;;;;6191960;23;20017;-85
2023/08/29 07:02:57;;;;;;;6.20;4.03;;;;;;;;;;6217716;23;20024;-85
2023/08/29 07:05:23;;;;;;;7.30;3.85;;;;;;;;;;6192987;23;20085;-85
2023/08/29 07:07:50;;;;;;;6.93;4.30;;;;;;;;;;6218712;23;20475;-85
2023/08/29 07:10:16;;;;;;;5.57;4.20;;;;;;;;;;6218070;23;20013;-85
2023/08/29 07:12:42;;;;;;;6.63;4.40;;;;;;;;;;6216028;23;20456;-86
2023/08/29 07:15:08;;;;;;;5.95;4.10;;;;;;;;;;6189090;23;20020;-85
2023/08/29 07:17:35;;;;;;;5.97;4.35;;;;;;;;;;6190755;23;20020;-86
2023/08/29 07:20:06;;;;;;;5.30;4.28;;;;;;;;;;6215900;23;20021;-86
2023/08/29 07:22:34;;;;;;;5.93;4.38;;;;;;;;;;6217013;23;20027;-86
2023/08/29 07:25:01;;;;;;;6.70;4.53;;;;;;;;;;6215061;23;20460;-84
2023/08/29 07:27:27;;;;;;;5.15;4.28;;;;;;;;;;6217490;23;20020;-85
2023/08/29 07:29:55;;;;;;;5.68;4.03;;;;;;;;;;6219297;23;20108;-86
2023/08/29 07:32:21;;;;;;;5.35;3.70;;;;;;;;;;6217777;23;20017;-85
2023/08/29 07:34:47;;;;;;;6.15;3.65;;;;;;;;;;6217514;23;20017;-85
2023/08/29 07:37:13;;;;;;;6.75;3.53;;;;;;;;;;6218796;23;20066;-85
2023/08/29 07:39:40;;;;;;;5.75;4.03;;;;;;;;;;6217017;23;20051;-85
2023/08/29 07:42:08;;;;;;;5.88;3.65;;;;;;;;;;6189915;23;20047;-85
2023/08/29 07:44:34;;;;;;;3.92;3.53;;;;;;;;;;6216290;23;20464;-84
2023/08/29 07:47:00;;;;;;;5.05;3.45;;;;;;;;;;6214639;23;20398;-85
2023/08/29 07:49:27;;;;;;;3.50;3.20;;;;;;;;;;6189827;23;20428;-84
2023/08/29 07:51:54;;;;;;;6.20;3.60;;;;;;;;;;6214657;23;20016;-85
2023/08/29 07:54:21;;;;;;;3.80;3.40;;;;;;;;;;6215250;23;20067;-84
2023/08/29 07:56:47;;;;;;;4.07;3.53;;;;;;;;;;6188765;23;20088;-85
2023/08/29 07:59:13;;;;;;;5.53;3.80;;;;;;;;;;6188845;23;20043;-85
2023/08/29 08:01:40;;;;;;;5.40;3.83;;;;;;;;;;6214537;23;20147;-84
2023/08/29 08:04:06;;;;;;;4.40;3.75;;;;;;;;;;6216034;23;20023;-84
2023/08/29 08:06:33;;;;;;;3.85;3.45;;;;;;;;;;6189148;23;20012;-84
2023/08/29 08:08:59;;;;;;;4.57;3.40;;;;;;;;;;6189031;23;20026;-84
2023/08/29 08:11:25;;;;;;;4.72;3.10;;;;;;;;;;6215778;23;20020;-84
2023/08/29 08:13:51;;;;;;;3.63;3.08;;;;;;;;;;6213700;23;20055;-85
2023/08/29 08:16:17;;;;;;;4.50;3.17;;;;;;;;;;6215230;23;20344;-85
2023/08/29 08:18:43;;;;;;;3.35;2.90;;;;;;;;;;6215575;23;20020;-85
2023/08/29 08:21:09;;;;;;;3.83;3.00;;;;;;;;;;6214041;23;20024;-84
2023/08/29 08:23:35;;;;;;;3.83;3.10;;;;;;;;;;6213239;23;20029;-85
2023/08/29 08:26:01;;;;;;;4.07;3.00;;;;;;;;;;6188861;23;20476;-84
2023/08/29 08:28:28;;;;;;;4.13;2.83;;;;;;;;;;6189023;23;20021;-84
2023/08/29 08:30:54;;;;;;;3.72;3.30;;;;;;;;;;6215353;23;20013;-85
2023/08/29 08:33:20;;;;;;;3.45;2.88;;;;;;;;;;6216217;23;20368;-85
2023/08/29 08:35:46;;;;;;;3.70;3.10;;;;;;;;;;6223109;23;20024;-85
2023/08/29 08:38:12;;;;;;;3.47;3.17;;;;;;;;;;6191779;23;20021;-85
2023/08/29 08:40:39;;;;;;;4.25;3.20;;;;;;;;;;6190915;23;20038;-85
2023/08/29 08:43:05;;;;;;;4.25;3.45;;;;;;;;;;6191975;23;20134;-85
2023/08/29 08:45:32;;;;;;;5.90;3.30;;;;;;;;;;6192907;23;20013;-85
2023/08/29 08:48:02;;;;;;;4.05;3.65;;;;;;;;;;6217551;23;20316;-85
2023/08/29 08:50:28;;;;;;;4.35;3.85;;;;;;;;;;6191360;23;20013;-86
2023/08/29 08:52:58;;;;;;;3.97;3.58;;;;;;;;;;6215545;23;20077;-86
2023/08/29 08:55:25;;;;;;;6.78;3.97;;;;;;;;;;6216593;23;20016;-86
2023/08/29 08:57:52;;;;;;;4.68;4.28;;;;;;;;;;6214526;23;20048;-85
2023/08/29 09:00:19;;;;;;;4.03;3.60;;;;;;;;;;6217055;23;20021;-86
2023/08/29 09:02:46;;;;;;;4.93;3.70;;;;;;;;;;6215039;23;20349;-86
2023/08/29 09:05:27;;;;;;;;;;;;;;;;;;;;;
2023/08/29 09:07:56;;;;;;;4.38;3.40;;;;;;;;;;6212387;23;20020;-85
2023/08/29 09:10:23;;;;;;;5.90;4.13;;;;;;;;;;6217340;23;20013;-86
2023/08/29 09:12:50;;;;;;;4.30;3.90;;;;;;;;;;6216237;23;20074;-85
2023/08/29 09:15:19;;;;;;;4.43;4.00;;;;;;;;;;6191037;23;20020;-86
2023/08/29 09:17:46;;;;;;;5.03;4.25;;;;;;;;;;6191510;23;20043;-85
2023/08/29 09:20:12;;;;;;;4.95;3.70;;;;;;;;;;6190754;23;20013;-85
2023/08/29 09:22:40;;;;;;;4.45;3.75;;;;;;;;;;6215401;23;20017;-85
2023/08/29 09:25:06;;;;;;;4.93;4.10;;;;;;;;;;6189597;23;20095;-86
2023/08/29 09:27:45;;;;;;;5.07;3.90;;;;;;;;;;6215578;23;20080;-86
2023/08/29 09:30:12;;;;;;;4.88;4.10;;;;;;;;;;6216248;23;20044;-85
2023/08/29 09:32:41;;;;;;;4.72;3.75;;;;;;;;;;6189644;23;20021;-85
2023/08/29 09:35:08;;;;;;;4.70;3.83;;;;;;;;;;6189644;23;20020;-85
2023/08/29 09:37:38;;;;;;;4.70;3.88;;;;;;;;;;6190125;23;20031;-85
2023/08/29 09:40:06;;;;;;;4.85;3.92;;;;;;;;;;6192008;23;20012;-85
2023/08/29 09:42:32;;;;;;;5.13;4.10;;;;;;;;;;6215992;23;20013;-85
2023/08/29 09:44:58;;;;;;;4.10;3.70;;;;;;;;;;6214549;23;20313;-84
2023/08/29 09:47:27;;;;;;;4.22;3.83;;;;;;;;;;6190988;23;20067;-84
2023/08/29 09:49:53;;;;;;;4.53;4.10;;;;;;;;;;6190975;23;20340;-84
2023/08/29 09:52:19;;;;;;;5.38;3.92;;;;;;;;;;6191088;23;20017;-85
2023/08/29 09:54:48;;;;;;;4.90;3.60;;;;;;;;;;6191999;23;20052;-86
2023/08/29 09:57:15;;;;;;;4.20;3.80;;;;;;;;;;6216157;23;20039;-85
2023/08/29 09:59:43;;;;;;;5.00;3.63;;;;;;;;;;6216597;23;20025;-86
2023/08/29 10:02:11;;;;;;;4.38;3.97;;;;;;;;;;6215425;23;20055;-85
2023/08/29 10:04:38;;;;;;;5.20;4.35;;;;;;;;;;6190065;23;20099;-84
2023/08/29 10:07:06;;;;;;;4.93;4.40;;;;;;;;;;6190443;23;20017;-85
2023/08/29 10:09:32;;;;;;;5.43;4.43;;;;;;;;;;6191016;23;20020;-84
2023/08/29 10:11:59;;;;;;;5.07;3.95;;;;;;;;;;6215386;23;20075;-85
2023/08/29 10:14:28;;;;;;;5.03;4.53;;;;;;;;;;6191325;23;20070;-85
2023/08/29 10:16:54;;;;;;;4.20;3.72;;;;;;;;;;6218192;23;20013;-85
2023/08/29 10:19:30;;;;;;;3.70;3.30;;;;;;;;;;6216180;23;20342;-86
2023/08/29 10:22:04;;;;;;;3.97;2.97;;;;;;;;;;6191597;23;20059;-86
2023/08/29 10:24:31;;;;;;;3.72;2.67;;;;;;;;;;6191507;23;20374;-85
2023/08/29 10:26:59;;;;;;;2.97;2.67;;;;;;;;;;6215951;23;20071;-85
2023/08/29 10:29:25;;;;;;;4.03;2.65;;;;;;;;;;6217181;23;20142;-85
2023/08/29 10:31:51;;;;;;;3.55;3.05;;;;;;;;;;6191291;23;20101;-85
2023/08/29 10:34:19;;;;;;;5.47;3.70;;;;;;;;;;6215386;23;20021;-85
2023/08/29 10:36:46;;;;;;;3.70;3.38;;;;;;;;;;6189423;23;20457;-85
2023/08/29 10:39:15;;;;;;;4.80;3.63;;;;;;;;;;6193416;23;20017;-85
2023/08/29 10:41:49;;;;;;;3.88;3.47;;;;;;;;;;6222417;23;20120;-85
2023/08/29 10:44:40;;;;;;;4.97;3.80;;;;;;;;;;6199054;23;20017;-85
2023/08/29 10:47:36;;;;;;;4.65;4.13;;;;;;;;;;6217517;23;20091;-85
2023/08/29 10:50:03;;;;;;;4.53;3.88;;;;;;;;;;6216437;23;20020;-86
2023/08/29 10:52:42;;;;;;;4.75;4.25;;;;;;;;;;6217256;23;20084;-86
2023/08/29 10:55:27;;;;;;;4.10;3.63;;;;;;;;;;6217777;23;20039;-86
2023/08/29 10:57:56;;;;;;;4.25;3.85;;;;;;;;;;6191018;23;20038;-85
2023/08/29 11:00:40;;;;;;;4.15;3.63;;;;;;;;;;6216051;23;20032;-86
2023/08/29 11:03:06;;;;;;;4.10;3.70;;;;;;;;;;6191689;23;20027;-86
2023/08/29 11:05:33;;;;;;;3.50;3.20;;;;;;;;;;6191529;23;20027;-85
2023/08/29 11:08:19;;;;;;;5.40;4.00;;;;;;;;;;6191705;23;20059;-85
2023/08/29 11:10:45;;;;;;;;;;;;;;;;;;6216752;23;20013;-85
2023/08/29 11:13:12;;;;;;;3.70;2.95;;;;;;;;;;6216981;23;20001;-86
2023/08/29 11:15:47;;;;;;;3.13;2.50;;;;;;;;;;6216662;23;20118;-86
2023/08/29 11:18:32;;;;;;;3.97;2.80;;;;;;;;;;6191746;23;20017;-86
2023/08/29 11:21:05;;;;;;;4.22;2.90;;;;;;;;;;6191857;23;20021;-85
2023/08/29 11:23:34;;;;;;;3.58;3.00;;;;;;;;;;6216793;23;20023;-85
2023/08/29 11:26:01;;;;;;;3.63;2.90;;;;;;;;;;6191385;23;20043;-85
2023/08/29 11:28:34;;;;;;;4.07;2.67;;;;;;;;;;6216918;23;20460;-85
2023/08/29 11:31:00;;;;;;;2.95;2.67;;;;;;;;;;6216090;23;20020;-85
2023/08/29 11:33:31;;;;;;;4.15;2.95;;;;;;;;;;6215352;23;20016;-86
2023/08/29 11:35:57;;;;;;;3.72;2.70;;;;;;;;;;6217711;23;20341;-86
2023/08/29 11:38:28;;;;;;;4.05;3.50;;;;;;;;;;6190943;23;20016;-86
2023/08/29 11:40:55;;;;;;;3.33;3.00;;;;;;;;;;6214866;23;20020;-86
2023/08/29 11:43:21;;;;;;;4.55;3.33;;;;;;;;;;6189725;23;20019;-85
2023/08/29 11:45:57;;;;;;;5.43;3.65;;;;;;;;;;6189892;23;20028;-85
2023/08/29 11:48:28;;;;;;;3.53;3.10;;;;;;;;;;6190460;23;20440;-85
2023/08/29 11:51:04;;;;;;;4.05;3.35;;;;;;;;;;6190083;23;20387;-85
2023/08/29 11:53:32;;;;;;;5.38;3.58;;;;;;;;;;6214825;23;20024;-86
2023/08/29 11:55:59;;;;;;;4.18;3.70;;;;;;;;;;6215256;23;20024;-85
2023/08/29 11:58:28;;;;;;;4.25;3.08;;;;;;;;;;6217389;23;20013;-85
2023/08/29 12:00:55;;;;;;;3.50;3.00;;;;;;;;;;6192501;23;20017;-85
2023/08/29 12:03:25;;;;;;;3.90;3.20;;;;;;;;;;6190938;23;20071;-85
2023/08/29 12:05:52;;;;;;;3.85;3.33;;;;;;;;;;6214490;23;20016;-86
2023/08/29 12:08:33;;;;;;;3.40;3.10;;;;;;;;;;6215708;23;20028;-86
2023/08/29 12:11:00;;;;;;;3.67;2.90;;;;;;;;;;6190261;23;20066;-85
2023/08/29 12:13:26;;;;;;;3.70;3.00;;;;;;;;;;6215629;23;20039;-86
2023/08/29 12:15:52;;;;;;;3.40;2.75;;;;;;;;;;6190849;23;20413;-85
2023/08/29 12:18:22;;;;;;;3.78;2.95;;;;;;;;;;6215467;23;20020;-85
2023/08/29 12:20:48;;;;;;;3.75;2.80;;;;;;;;;;6190049;23;20013;-86
2023/08/29 12:23:24;;;;;;;4.57;2.80;;;;;;;;;;6190358;23;20027;-86
2023/08/29 12:25:50;;;;;;;5.00;2.38;;;;;;;;;;6191904;23;20376;-86
2023/08/29 12:28:16;;;;;;;3.45;2.70;;;;;;;;;;6217039;23;20364;-85
2023/08/29 12:30:42;;;;;;;3.72;2.40;;;;;;;;;;6216774;23;20285;-85
2023/08/29 12:33:08;;;;;;;4.68;2.80;;;;;;;;;;6214794;23;20021;-85
2023/08/29 12:35:38;;;;;;;5.20;2.30;;;;;;;;;;6190457;23;20016;-86
2023/08/29 12:38:05;;;;;;;4.22;2.97;;;;;;;;;;6214787;23;20020;-85
2023/08/29 12:40:31;;;;;;;3.92;2.90;;;;;;;;;;6190429;23;20029;-86
2023/08/29 12:42:57;;;;;;;4.72;2.90;;;;;;;;;;6189605;23;20440;-86
2023/08/29 12:45:23;;;;;;;4.95;3.35;;;;;;;;;;6194640;23;20456;-86
2023/08/29 12:47:50;;;;;;;4.90;3.60;;;;;;;;;;6196098;23;20033;-86
2023/08/29 12:50:17;;;;;;;4.90;3.40;;;;;;;;;;6215313;23;20084;-87
2023/08/29 12:52:43;;;;;;;3.95;3.40;;;;;;;;;;6188651;23;20083;-87
2023/08/29 12:55:12;;;;;;;4.72;3.05;;;;;;;;;;6189369;23;20024;-87
2023/08/29 12:57:38;;;;;;;4.68;3.25;;;;;;;;;;6189142;23;20017;-86
2023/08/29 13:00:07;;;;;;;3.92;3.20;;;;;;;;;;6189550;23;20116;-85
2023/08/29 13:02:33;;;;;;;4.07;3.20;;;;;;;;;;6189283;23;20023;-86
2023/08/29 13:04:59;;;;;;;3.67;3.25;;;;;;;;;;6189174;23;20017;-86
2023/08/29 13:07:25;;;;;;;4.60;3.10;;;;;;;;;;6214722;23;20433;-85
2023/08/29 13:09:52;;;;;;;4.28;3.30;;;;;;;;;;6216025;23;20024;-85
2023/08/29 13:12:21;;;;;;;4.13;3.50;;;;;;;;;;6215890;23;20146;-86
2023/08/29 13:14:47;;;;;;;4.95;3.80;;;;;;;;;;6214299;23;20467;-84
2023/08/29 13:17:16;;;;;;;4.00;3.50;;;;;;;;;;6189355;23;20023;-86
2023/08/29 13:19:42;;;;;;;5.20;3.20;;;;;;;;;;6216041;23;20017;-86
2023/08/29 13:22:09;;;;;;;3.55;2.72;;;;;;;;;;6214564;23;20021;-86
2023/08/29 13:24:38;;;;;;;3.58;2.80;;;;;;;;;;6213845;23;20095;-86
2023/08/29 13:27:04;;;;;;;3.25;2.40;;;;;;;;;;6214057;23;20095;-86
2023/08/29 13:29:30;;;;;;;3.55;3.05;;;;;;;;;;6214016;23;20019;-85
2023/08/29 13:31:57;;;;;;;3.03;2.60;;;;;;;;;;6188359;23;20475;-86
2023/08/29 13:34:23;;;;;;;3.95;3.08;;;;;;;;;;6188822;23;20033;-84
2023/08/29 13:36:49;;;;;;;4.10;3.25;;;;;;;;;;6215041;23;20286;-85
2023/08/29 13:39:18;;;;;;;4.05;2.92;;;;;;;;;;6189839;23;20023;-84
2023/08/29 13:41:47;;;;;;;3.30;2.83;;;;;;;;;;6188930;23;20079;-85
2023/08/29 13:44:13;;;;;;;3.20;2.83;;;;;;;;;;6214284;23;20017;-85
2023/08/29 13:46:41;;;;;;;3.78;2.50;;;;;;;;;;6188956;23;20436;-85
2023/08/29 13:49:08;;;;;;;4.18;2.70;;;;;;;;;;6189488;23;20024;-85
2023/08/29 13:51:34;;;;;;;3.53;2.55;;;;;;;;;;6214952;23;20028;-85
2023/08/29 13:54:00;;;;;;;4.32;3.05;;;;;;;;;;6214318;23;20021;-85
2023/08/29 13:56:26;;;;;;;3.55;2.80;;;;;;;;;;6215789;23;20017;-85
2023/08/29 13:58:52;;;;;;;3.80;3.05;;;;;;;;;;6215616;23;20095;-86
2023/08/29 14:01:18;;;;;;;3.47;3.00;;;;;;;;;;6216605;23;20055;-85
2023/08/29 14:03:44;;;;;;;5.05;3.30;;;;;;;;;;6191421;23;20027;-85
2023/08/29 14:06:11;;;;;;;4.53;2.83;;;;;;;;;;6216089;23;20040;-85
2023/08/29 14:08:37;;;;;;;3.40;2.90;;;;;;;;;;6190602;23;20075;-85
2023/08/29 14:11:06;;;;;;;4.15;2.85;;;;;;;;;;6217840;23;20088;-85
2023/08/29 14:13:33;;;;;;;3.92;2.90;;;;;;;;;;6191176;23;20020;-84
2023/08/29 14:16:03;;;;;;;4.05;2.97;;;;;;;;;;6190918;23;20432;-85
2023/08/29 14:18:29;;;;;;;3.50;3.05;;;;;;;;;;6215903;23;20020;-85
2023/08/29 14:20:56;;;;;;;4.28;3.30;;;;;;;;;;6190531;23;20016;-85
2023/08/29 14:23:22;;;;;;;4.10;2.90;;;;;;;;;;6215424;23;20020;-84
2023/08/29 14:25:48;;;;;;;4.03;3.00;;;;;;;;;;6190518;23;20317;-85
2023/08/29 14:28:14;;;;;;;3.53;2.85;;;;;;;;;;6216266;23;20063;-85
2023/08/29 14:30:46;;;;;;;5.47;3.20;;;;;;;;;;6190982;23;20017;-86
2023/08/29 14:33:13;;;;;;;5.20;3.00;;;;;;;;;;6190651;23;20096;-85
2023/08/29 14:35:42;;;;;;;3.13;2.83;;;;;;;;;;6191630;23;20024;-85
2023/08/29 14:38:08;;;;;;;4.55;3.05;;;;;;;;;;6190583;23;20336;-84
2023/08/29 14:40:34;;;;;;;4.25;3.20;;;;;;;;;;6190723;23;20017;-85
2023/08/29 14:43:00;;;;;;;5.18;3.30;;;;;;;;;;6214952;23;20087;-85
2023/08/29 14:45:27;;;;;;;3.83;3.42;;;;;;;;;;6215312;23;20024;-85